sensor_id;sensor_type;location;lat;lon;timestamp;pressure;altitude;pressure_sealevel;temperature;humidity
61292;BME280;47165;42.664;23.368;2022-07-01T00:37:40;94993.72;;;25.23;47.17
61292;BME280;47165;42.664;23.368;2022-07-01T00:40:06;94991.16;;;25.30;45.78
61292;BME280;47165;42.664;23.368;2022-07-01T00:42:32;94999.84;;;25.32;45.69
61292;BME280;47165;42.664;23.368;2022-07-01T00:44:58;95002.50;;;25.32;45.64
61292;BME280;47165;42.664;23.368;2022-07-01T00:47:24;95002.34;;;25.34;46.23
61292;BME280;47165;42.664;23.368;2022-07-01T00:49:49;95002.88;;;25.29;45.77
61292;BME280;47165;42.664;23.368;2022-07-01T00:52:15;95009.88;;;25.30;45.66
61292;BME280;47165;42.664;23.368;2022-07-01T00:54:41;95008.22;;;25.29;45.63
61292;BME280;47165;42.664;23.368;2022-07-01T00:57:08;95004.91;;;25.27;46.04
61292;BME280;47165;42.664;23.368;2022-07-01T00:59:35;95001.56;;;25.25;46.33
61292;BME280;47165;42.664;23.368;2022-07-01T01:02:01;95003.91;;;25.20;46.74
61292;BME280;47165;42.664;23.368;2022-07-01T01:04:26;95014.59;;;25.20;46.45
61292;BME280;47165;42.664;23.368;2022-07-01T01:06:52;95000.56;;;25.18;46.34
61292;BME280;47165;42.664;23.368;2022-07-01T01:09:18;94998.88;;;24.94;46.33
61292;BME280;47165;42.664;23.368;2022-07-01T01:11:43;95006.06;;;24.93;47.43
61292;BME280;47165;42.664;23.368;2022-07-01T01:14:08;95006.78;;;24.87;47.11
61292;BME280;47165;42.664;23.368;2022-07-01T01:16:34;94998.25;;;24.83;47.86
61292;BME280;47165;42.664;23.368;2022-07-01T01:19:04;94996.44;;;24.84;47.61
61292;BME280;47165;42.664;23.368;2022-07-01T01:21:31;94999.28;;;24.82;47.05
61292;BME280;47165;42.664;23.368;2022-07-01T01:23:57;94993.94;;;24.82;47.35
61292;BME280;47165;42.664;23.368;2022-07-01T01:26:22;94998.31;;;24.75;46.70
61292;BME280;47165;42.664;23.368;2022-07-01T01:28:50;95003.56;;;24.60;46.78
61292;BME280;47165;42.664;23.368;2022-07-01T01:31:16;94997.88;;;24.63;46.98
61292;BME280;47165;42.664;23.368;2022-07-01T01:33:41;95008.88;;;24.68;47.64
61292;BME280;47165;42.664;23.368;2022-07-01T01:36:07;95008.88;;;24.68;47.31
61292;BME280;47165;42.664;23.368;2022-07-01T01:38:36;95006.84;;;24.70;48.03
61292;BME280;47165;42.664;23.368;2022-07-01T01:41:03;95013.88;;;24.72;47.79
61292;BME280;47165;42.664;23.368;2022-07-01T01:43:28;95016.88;;;24.68;47.99
61292;BME280;47165;42.664;23.368;2022-07-01T01:45:54;95018.06;;;24.66;47.61
61292;BME280;47165;42.664;23.368;2022-07-01T01:48:19;95013.53;;;24.66;47.15
61292;BME280;47165;42.664;23.368;2022-07-01T01:50:45;95014.56;;;24.65;47.37
61292;BME280;47165;42.664;23.368;2022-07-01T01:53:10;95010.88;;;24.66;46.98
61292;BME280;47165;42.664;23.368;2022-07-01T01:55:36;95011.53;;;24.68;48.01
61292;BME280;47165;42.664;23.368;2022-07-01T01:58:01;95009.41;;;24.64;47.59
61292;BME280;47165;42.664;23.368;2022-07-01T02:00:27;95010.25;;;24.56;47.42
61292;BME280;47165;42.664;23.368;2022-07-01T02:02:54;95016.94;;;24.52;47.65
61292;BME280;47165;42.664;23.368;2022-07-01T02:05:19;95017.44;;;24.47;48.29
61292;BME280;47165;42.664;23.368;2022-07-01T02:07:44;95026.13;;;24.49;48.06
61292;BME280;47165;42.664;23.368;2022-07-01T02:10:10;95033.78;;;24.53;48.08
61292;BME280;47165;42.664;23.368;2022-07-01T02:12:35;95025.44;;;24.56;47.97
61292;BME280;47165;42.664;23.368;2022-07-01T02:15:01;95028.94;;;24.56;47.82
61292;BME280;47165;42.664;23.368;2022-07-01T02:17:26;95027.28;;;24.55;47.81
61292;BME280;47165;42.664;23.368;2022-07-01T02:19:52;95030.28;;;24.52;47.79
61292;BME280;47165;42.664;23.368;2022-07-01T02:22:17;95034.66;;;24.53;48.50
61292;BME280;47165;42.664;23.368;2022-07-01T02:24:43;95033.97;;;24.43;49.50
61292;BME280;47165;42.664;23.368;2022-07-01T02:27:11;95030.81;;;24.39;49.25
61292;BME280;47165;42.664;23.368;2022-07-01T02:29:37;95034.66;;;24.37;49.20
61292;BME280;47165;42.664;23.368;2022-07-01T02:32:03;95032.16;;;24.35;49.55
61292;BME280;47165;42.664;23.368;2022-07-01T02:34:29;95037.34;;;24.28;49.44
61292;BME280;47165;42.664;23.368;2022-07-01T02:36:54;95045.03;;;24.23;49.33
61292;BME280;47165;42.664;23.368;2022-07-01T02:39:21;95045.38;;;24.20;49.40
61292;BME280;47165;42.664;23.368;2022-07-01T02:41:48;95056.72;;;24.22;49.16
61292;BME280;47165;42.664;23.368;2022-07-01T02:44:34;95054.06;;;24.22;48.84
61292;BME280;47165;42.664;23.368;2022-07-01T02:46:59;95056.06;;;24.20;49.43
61292;BME280;47165;42.664;23.368;2022-07-01T02:49:25;95061.59;;;24.02;49.85
61292;BME280;47165;42.664;23.368;2022-07-01T02:51:50;95064.41;;;24.01;50.12
61292;BME280;47165;42.664;23.368;2022-07-01T02:54:15;95066.09;;;24.02;51.69
61292;BME280;47165;42.664;23.368;2022-07-01T02:56:41;95060.41;;;23.97;51.59
61292;BME280;47165;42.664;23.368;2022-07-01T02:59:07;95067.44;;;23.81;50.69
61292;BME280;47165;42.664;23.368;2022-07-01T03:01:32;95071.56;;;23.59;51.53
61292;BME280;47165;42.664;23.368;2022-07-01T03:03:58;95073.22;;;23.60;51.85
61292;BME280;47165;42.664;23.368;2022-07-01T03:06:23;95074.75;;;23.63;52.15
61292;BME280;47165;42.664;23.368;2022-07-01T03:08:48;95080.91;;;23.63;52.15
61292;BME280;47165;42.664;23.368;2022-07-01T03:11:14;95080.03;;;23.30;52.17
61292;BME280;47165;42.664;23.368;2022-07-01T03:13:42;95088.06;;;22.96;53.14
61292;BME280;47165;42.664;23.368;2022-07-01T03:16:08;95093.53;;;22.94;53.93
61292;BME280;47165;42.664;23.368;2022-07-01T03:18:33;95100.44;;;23.05;54.67
61292;BME280;47165;42.664;23.368;2022-07-01T03:20:58;95095.31;;;23.12;54.41
61292;BME280;47165;42.664;23.368;2022-07-01T03:23:24;95098.47;;;23.15;54.73
61292;BME280;47165;42.664;23.368;2022-07-01T03:25:49;95092.47;;;23.21;54.13
61292;BME280;47165;42.664;23.368;2022-07-01T03:28:15;95088.31;;;23.10;53.40
61292;BME280;47165;42.664;23.368;2022-07-01T03:30:42;95094.00;;;23.16;54.26
61292;BME280;47165;42.664;23.368;2022-07-01T03:33:07;95090.66;;;23.22;54.58
61292;BME280;47165;42.664;23.368;2022-07-01T03:35:33;95089.66;;;23.23;54.41
61292;BME280;47165;42.664;23.368;2022-07-01T03:38:02;95090.03;;;23.28;54.08
61292;BME280;47165;42.664;23.368;2022-07-01T03:40:29;95098.50;;;23.32;53.82
61292;BME280;47165;42.664;23.368;2022-07-01T03:42:55;95094.69;;;23.34;53.55
61292;BME280;47165;42.664;23.368;2022-07-01T03:45:21;95094.34;;;23.37;53.13
61292;BME280;47165;42.664;23.368;2022-07-01T03:47:47;95090.88;;;23.37;53.76
61292;BME280;47165;42.664;23.368;2022-07-01T03:50:14;95090.03;;;23.36;53.51
61292;BME280;47165;42.664;23.368;2022-07-01T03:52:39;95094.03;;;23.32;53.70
61292;BME280;47165;42.664;23.368;2022-07-01T03:55:10;95089.00;;;23.29;53.39
61292;BME280;47165;42.664;23.368;2022-07-01T03:57:36;95092.50;;;23.29;53.54
61292;BME280;47165;42.664;23.368;2022-07-01T04:00:02;95087.34;;;23.28;53.55
61292;BME280;47165;42.664;23.368;2022-07-01T04:02:27;95097.00;;;23.29;53.87
61292;BME280;47165;42.664;23.368;2022-07-01T04:04:53;95094.50;;;23.36;53.64
61292;BME280;47165;42.664;23.368;2022-07-01T04:07:20;95100.03;;;23.42;53.47
61292;BME280;47165;42.664;23.368;2022-07-01T04:09:46;95098.53;;;23.48;53.04
61292;BME280;47165;42.664;23.368;2022-07-01T04:12:12;95105.88;;;23.54;52.95
61292;BME280;47165;42.664;23.368;2022-07-01T04:14:38;95107.03;;;23.60;52.83
61292;BME280;47165;42.664;23.368;2022-07-01T04:17:03;95105.72;;;23.64;52.72
61292;BME280;47165;42.664;23.368;2022-07-01T04:19:31;95116.72;;;23.69;52.50
61292;BME280;47165;42.664;23.368;2022-07-01T04:21:56;95111.41;;;23.69;52.88
61292;BME280;47165;42.664;23.368;2022-07-01T04:24:40;95116.38;;;23.72;53.29
61292;BME280;47165;42.664;23.368;2022-07-01T04:27:05;95108.22;;;23.74;53.42
61292;BME280;47165;42.664;23.368;2022-07-01T04:29:31;95114.09;;;23.77;53.05
61292;BME280;47165;42.664;23.368;2022-07-01T04:31:57;95112.94;;;23.80;53.30
61292;BME280;47165;42.664;23.368;2022-07-01T04:34:23;95120.44;;;23.84;52.76
61292;BME280;47165;42.664;23.368;2022-07-01T04:36:48;95116.59;;;23.87;52.75
61292;BME280;47165;42.664;23.368;2022-07-01T04:39:14;95118.94;;;23.90;52.74
61292;BME280;47165;42.664;23.368;2022-07-01T04:41:39;95119.75;;;23.90;52.89
61292;BME280;47165;42.664;23.368;2022-07-01T04:44:23;95115.09;;;24.01;52.64
61292;BME280;47165;42.664;23.368;2022-07-01T04:46:49;95115.44;;;23.89;52.40
61292;BME280;47165;42.664;23.368;2022-07-01T04:49:14;95116.78;;;23.85;53.12
61292;BME280;47165;42.664;23.368;2022-07-01T04:51:40;95114.22;;;23.67;53.51
61292;BME280;47165;42.664;23.368;2022-07-01T04:54:06;95120.25;;;23.78;53.73
61292;BME280;47165;42.664;23.368;2022-07-01T04:56:31;95119.25;;;23.87;53.51
61292;BME280;47165;42.664;23.368;2022-07-01T04:58:58;95115.75;;;23.95;52.99
61292;BME280;47165;42.664;23.368;2022-07-01T05:01:23;95115.09;;;24.01;52.62
61292;BME280;47165;42.664;23.368;2022-07-01T05:03:50;95113.09;;;24.03;52.40
61292;BME280;47165;42.664;23.368;2022-07-01T05:06:15;95112.78;;;24.06;52.39
61292;BME280;47165;42.664;23.368;2022-07-01T05:08:41;95118.41;;;24.11;52.25
61292;BME280;47165;42.664;23.368;2022-07-01T05:11:07;95111.75;;;24.15;52.78
61292;BME280;47165;42.664;23.368;2022-07-01T05:13:32;95109.41;;;24.20;52.95
61292;BME280;47165;42.664;23.368;2022-07-01T05:15:59;95123.91;;;24.26;52.86
61292;BME280;47165;42.664;23.368;2022-07-01T05:18:25;95109.22;;;24.30;52.28
61292;BME280;47165;42.664;23.368;2022-07-01T05:21:25;95113.06;;;24.36;52.29
61292;BME280;47165;42.664;23.368;2022-07-01T05:24:09;95119.06;;;24.38;52.54
61292;BME280;47165;42.664;23.368;2022-07-01T05:26:35;95121.72;;;24.46;52.56
61292;BME280;47165;42.664;23.368;2022-07-01T05:29:00;95117.84;;;24.48;52.00
61292;BME280;47165;42.664;23.368;2022-07-01T05:31:26;95114.38;;;24.48;52.38
61292;BME280;47165;42.664;23.368;2022-07-01T05:33:51;95108.03;;;24.49;52.14
61292;BME280;47165;42.664;23.368;2022-07-01T05:36:17;95118.38;;;24.52;52.39
61292;BME280;47165;42.664;23.368;2022-07-01T05:38:42;95115.03;;;24.58;52.29
61292;BME280;47165;42.664;23.368;2022-07-01T05:41:08;95118.03;;;24.63;51.22
61292;BME280;47165;42.664;23.368;2022-07-01T05:43:34;95113.16;;;24.67;51.44
61292;BME280;47165;42.664;23.368;2022-07-01T05:46:00;95113.84;;;24.69;51.40
61292;BME280;47165;42.664;23.368;2022-07-01T05:48:26;95120.03;;;24.69;51.57
61292;BME280;47165;42.664;23.368;2022-07-01T05:50:51;95115.34;;;24.72;51.06
61292;BME280;47165;42.664;23.368;2022-07-01T05:53:17;95117.81;;;24.73;51.18
61292;BME280;47165;42.664;23.368;2022-07-01T05:55:43;95117.50;;;24.76;50.62
61292;BME280;47165;42.664;23.368;2022-07-01T05:58:12;95115.28;;;24.88;50.30
61292;BME280;47165;42.664;23.368;2022-07-01T06:00:39;95117.59;;;24.91;50.42
61292;BME280;47165;42.664;23.368;2022-07-01T06:03:12;95111.06;;;24.94;50.71
61292;BME280;47165;42.664;23.368;2022-07-01T06:05:38;95115.94;;;24.90;50.94
61292;BME280;47165;42.664;23.368;2022-07-01T06:08:04;95103.56;;;24.97;51.15
61292;BME280;47165;42.664;23.368;2022-07-01T06:10:30;95112.72;;;25.03;51.52
61292;BME280;47165;42.664;23.368;2022-07-01T06:12:55;95125.53;;;25.07;51.47
61292;BME280;47165;42.664;23.368;2022-07-01T06:15:21;95113.50;;;25.12;51.71
61292;BME280;47165;42.664;23.368;2022-07-01T06:17:46;95113.50;;;25.12;50.74
61292;BME280;47165;42.664;23.368;2022-07-01T06:20:12;95121.84;;;25.17;50.72
61292;BME280;47165;42.664;23.368;2022-07-01T06:22:37;95117.84;;;25.21;50.88
61292;BME280;47165;42.664;23.368;2022-07-01T06:25:03;95124.31;;;25.26;50.93
61292;BME280;47165;42.664;23.368;2022-07-01T06:27:29;95130.81;;;25.32;50.06
61292;BME280;47165;42.664;23.368;2022-07-01T06:29:54;95125.13;;;25.35;50.04
61292;BME280;47165;42.664;23.368;2022-07-01T06:32:20;95134.63;;;25.38;50.50
61292;BME280;47165;42.664;23.368;2022-07-01T06:34:46;95128.56;;;25.44;51.09
61292;BME280;47165;42.664;23.368;2022-07-01T06:37:13;95114.69;;;25.48;51.05
61292;BME280;47165;42.664;23.368;2022-07-01T06:39:38;95117.66;;;25.54;51.42
61292;BME280;47165;42.664;23.368;2022-07-01T06:42:04;95111.28;;;25.55;51.55
61292;BME280;47165;42.664;23.368;2022-07-01T06:44:30;95123.72;;;25.47;50.78
61292;BME280;47165;42.664;23.368;2022-07-01T06:46:55;95120.28;;;25.30;50.47
61292;BME280;47165;42.664;23.368;2022-07-01T06:49:21;95111.56;;;25.37;51.03
61292;BME280;47165;42.664;23.368;2022-07-01T06:51:46;95123.06;;;25.45;50.35
61292;BME280;47165;42.664;23.368;2022-07-01T06:54:12;95120.50;;;25.52;49.92
61292;BME280;47165;42.664;23.368;2022-07-01T06:56:37;95120.03;;;25.48;49.53
61292;BME280;47165;42.664;23.368;2022-07-01T06:59:03;95116.97;;;25.60;49.78
61292;BME280;47165;42.664;23.368;2022-07-01T07:01:28;95122.03;;;25.69;49.74
61292;BME280;47165;42.664;23.368;2022-07-01T07:03:54;95116.84;;;25.76;50.11
61292;BME280;47165;42.664;23.368;2022-07-01T07:06:19;95119.47;;;25.84;50.46
61292;BME280;47165;42.664;23.368;2022-07-01T07:08:45;95120.41;;;25.92;50.96
61292;BME280;47165;42.664;23.368;2022-07-01T07:11:11;95123.03;;;26.00;51.30
61292;BME280;47165;42.664;23.368;2022-07-01T07:13:37;95124.34;;;26.04;50.78
61292;BME280;47165;42.664;23.368;2022-07-01T07:16:02;95119.28;;;26.09;50.69
61292;BME280;47165;42.664;23.368;2022-07-01T07:18:28;95125.22;;;26.19;50.86
61292;BME280;47165;42.664;23.368;2022-07-01T07:20:53;95123.00;;;26.23;50.32
61292;BME280;47165;42.664;23.368;2022-07-01T07:23:19;95127.81;;;26.27;50.45
61292;BME280;47165;42.664;23.368;2022-07-01T07:25:44;95129.31;;;26.30;49.72
61292;BME280;47165;42.664;23.368;2022-07-01T07:28:10;95124.22;;;26.35;49.70
61292;BME280;47165;42.664;23.368;2022-07-01T07:30:35;95126.38;;;26.40;49.79
61292;BME280;47165;42.664;23.368;2022-07-01T07:33:01;95124.78;;;26.45;50.08
61292;BME280;47165;42.664;23.368;2022-07-01T07:35:26;95122.59;;;26.49;49.72
61292;BME280;47165;42.664;23.368;2022-07-01T07:37:51;95121.22;;;26.53;49.28
61292;BME280;47165;42.664;23.368;2022-07-01T07:40:17;95122.53;;;26.57;49.17
61292;BME280;47165;42.664;23.368;2022-07-01T07:42:46;95120.69;;;26.58;47.71
61292;BME280;47165;42.664;23.368;2022-07-01T07:45:13;95117.28;;;26.64;47.76
61292;BME280;47165;42.664;23.368;2022-07-01T07:47:43;95113.41;;;26.66;47.78
61292;BME280;47165;42.664;23.368;2022-07-01T07:50:10;95111.72;;;26.65;46.91
61292;BME280;47165;42.664;23.368;2022-07-01T07:52:36;95115.53;;;26.71;47.55
61292;BME280;47165;42.664;23.368;2022-07-01T07:55:02;95119.97;;;26.79;47.95
61292;BME280;47165;42.664;23.368;2022-07-01T07:57:27;95114.06;;;26.83;47.56
61292;BME280;47165;42.664;23.368;2022-07-01T07:59:53;95110.16;;;26.86;46.13
61292;BME280;47165;42.664;23.368;2022-07-01T08:02:18;95111.63;;;26.88;46.13
61292;BME280;47165;42.664;23.368;2022-07-01T08:04:44;95111.75;;;26.95;46.60
61292;BME280;47165;42.664;23.368;2022-07-01T08:07:09;95106.06;;;27.05;47.27
61292;BME280;47165;42.664;23.368;2022-07-01T08:09:35;95102.09;;;27.16;47.61
61292;BME280;47165;42.664;23.368;2022-07-01T08:12:01;95096.47;;;27.25;47.51
61292;BME280;47165;42.664;23.368;2022-07-01T08:14:27;95099.88;;;27.34;47.44
61292;BME280;47165;42.664;23.368;2022-07-01T08:16:52;95097.09;;;27.42;47.21
61292;BME280;47165;42.664;23.368;2022-07-01T08:19:18;95088.28;;;27.48;47.43
61292;BME280;47165;42.664;23.368;2022-07-01T08:21:43;95087.75;;;27.60;46.82
61292;BME280;47165;42.664;23.368;2022-07-01T08:24:09;95091.78;;;27.70;46.58
61292;BME280;47165;42.664;23.368;2022-07-01T08:26:34;95093.72;;;27.77;46.50
61292;BME280;47165;42.664;23.368;2022-07-01T08:29:00;95087.97;;;27.80;45.75
61292;BME280;47165;42.664;23.368;2022-07-01T08:31:25;95090.06;;;27.84;45.13
61292;BME280;47165;42.664;23.368;2022-07-01T08:33:50;95089.97;;;27.93;45.52
61292;BME280;47165;42.664;23.368;2022-07-01T08:36:16;95098.94;;;28.00;45.66
61292;BME280;47165;42.664;23.368;2022-07-01T08:38:41;95092.38;;;28.09;45.11
61292;BME280;47165;42.664;23.368;2022-07-01T08:41:07;95085.78;;;28.12;44.37
61292;BME280;47165;42.664;23.368;2022-07-01T08:43:33;95089.56;;;28.17;43.75
61292;BME280;47165;42.664;23.368;2022-07-01T08:46:00;95083.03;;;28.26;43.42
61292;BME280;47165;42.664;23.368;2022-07-01T08:48:29;95078.19;;;28.43;43.28
61292;BME280;47165;42.664;23.368;2022-07-01T08:50:55;95076.25;;;28.59;43.84
61292;BME280;47165;42.664;23.368;2022-07-01T08:53:20;95080.28;;;28.48;42.98
61292;BME280;47165;42.664;23.368;2022-07-01T08:55:46;95087.28;;;28.71;43.40
61292;BME280;47165;42.664;23.368;2022-07-01T08:58:31;95084.28;;;28.94;42.97
61292;BME280;47165;42.664;23.368;2022-07-01T09:01:15;95085.00;;;29.09;42.43
61292;BME280;47165;42.664;23.368;2022-07-01T09:03:42;95078.03;;;29.21;43.50
61292;BME280;47165;42.664;23.368;2022-07-01T09:06:28;95076.63;;;29.32;42.52
61292;BME280;47165;42.664;23.368;2022-07-01T09:08:54;95071.25;;;29.32;40.86
61292;BME280;47165;42.664;23.368;2022-07-01T09:11:24;95079.75;;;29.42;40.49
61292;BME280;47165;42.664;23.368;2022-07-01T09:14:08;95083.72;;;29.53;40.93
61292;BME280;47165;42.664;23.368;2022-07-01T09:19:06;95082.50;;;29.62;42.28
61292;BME280;47165;42.664;23.368;2022-07-01T09:21:32;95075.50;;;29.68;41.36
61292;BME280;47165;42.664;23.368;2022-07-01T09:24:23;95076.34;;;29.75;38.17
61292;BME280;47165;42.664;23.368;2022-07-01T09:29:19;95074.72;;;29.81;38.52
61292;BME280;47165;42.664;23.368;2022-07-01T09:31:48;95076.34;;;29.82;36.88
61292;BME280;47165;42.664;23.368;2022-07-01T09:34:14;95069.31;;;29.87;36.65
61292;BME280;47165;42.664;23.368;2022-07-01T09:36:39;95067.84;;;29.72;35.27
61292;BME280;47165;42.664;23.368;2022-07-01T09:39:07;95067.66;;;29.73;36.05
61292;BME280;47165;42.664;23.368;2022-07-01T09:41:36;95071.00;;;30.02;35.74
61292;BME280;47165;42.664;23.368;2022-07-01T09:44:07;95066.63;;;30.14;36.35
61292;BME280;47165;42.664;23.368;2022-07-01T09:46:34;95060.03;;;30.23;36.41
61292;BME280;47165;42.664;23.368;2022-07-01T09:48:59;95057.75;;;30.34;35.90
61292;BME280;47165;42.664;23.368;2022-07-01T09:51:26;95052.34;;;30.47;36.63
61292;BME280;47165;42.664;23.368;2022-07-01T09:53:52;95052.34;;;30.60;35.79
61292;BME280;47165;42.664;23.368;2022-07-01T09:56:19;95050.63;;;30.66;32.69
61292;BME280;47165;42.664;23.368;2022-07-01T09:58:44;95047.50;;;30.76;33.99
61292;BME280;47165;42.664;23.368;2022-07-01T10:01:10;95040.44;;;30.81;32.83
61292;BME280;47165;42.664;23.368;2022-07-01T10:03:37;95032.53;;;30.86;32.52
61292;BME280;47165;42.664;23.368;2022-07-01T10:12:24;95036.00;;;31.14;29.66
61292;BME280;47165;42.664;23.368;2022-07-01T10:14:24;95033.44;;;31.25;31.15
61292;BME280;47165;42.664;23.368;2022-07-01T10:16:50;95040.66;;;31.38;32.77
61292;BME280;47165;42.664;23.368;2022-07-01T10:19:26;95041.81;;;31.56;34.28
61292;BME280;47165;42.664;23.368;2022-07-01T10:21:54;95035.00;;;31.53;30.83
61292;BME280;47165;42.664;23.368;2022-07-01T10:24:23;95029.13;;;31.63;30.85
61292;BME280;47165;42.664;23.368;2022-07-01T10:26:50;95026.59;;;31.68;30.07
61292;BME280;47165;42.664;23.368;2022-07-01T10:29:36;95030.41;;;31.85;32.35
61292;BME280;47165;42.664;23.368;2022-07-01T10:34:39;95022.84;;;32.01;29.65
61292;BME280;47165;42.664;23.368;2022-07-01T10:37:10;95020.63;;;32.16;30.56
61292;BME280;47165;42.664;23.368;2022-07-01T10:42:20;95005.06;;;32.12;28.58
61292;BME280;47165;42.664;23.368;2022-07-01T10:45:11;94999.09;;;32.72;25.37
61292;BME280;47165;42.664;23.368;2022-07-01T10:47:38;94987.44;;;33.38;26.11
61292;BME280;47165;42.664;23.368;2022-07-01T10:50:12;94986.56;;;33.86;28.45
61292;BME280;47165;42.664;23.368;2022-07-01T10:52:38;94983.91;;;34.34;26.68
61292;BME280;47165;42.664;23.368;2022-07-01T10:55:06;94978.22;;;34.71;27.45
61292;BME280;47165;42.664;23.368;2022-07-01T10:57:35;94979.94;;;34.89;25.32
61292;BME280;47165;42.664;23.368;2022-07-01T11:02:34;94985.69;;;35.16;25.29
61292;BME280;47165;42.664;23.368;2022-07-01T11:05:11;94989.66;;;35.25;26.90
61292;BME280;47165;42.664;23.368;2022-07-01T11:07:46;94984.84;;;35.15;21.49
61292;BME280;47165;42.664;23.368;2022-07-01T11:10:13;94986.63;;;35.10;22.57
61292;BME280;47165;42.664;23.368;2022-07-01T11:12:41;94980.84;;;35.18;21.56
61292;BME280;47165;42.664;23.368;2022-07-01T11:15:10;94983.06;;;35.21;23.28
61292;BME280;47165;42.664;23.368;2022-07-01T11:17:42;94980.31;;;35.50;23.07
61292;BME280;47165;42.664;23.368;2022-07-01T11:20:08;94974.81;;;35.73;23.04
61292;BME280;47165;42.664;23.368;2022-07-01T11:22:34;94979.00;;;35.98;25.40
61292;BME280;47165;42.664;23.368;2022-07-01T11:25:05;94981.91;;;36.08;27.75
61292;BME280;47165;42.664;23.368;2022-07-01T11:27:32;94974.31;;;36.10;21.75
61292;BME280;47165;42.664;23.368;2022-07-01T11:30:07;94967.16;;;36.04;24.29
61292;BME280;47165;42.664;23.368;2022-07-01T11:32:37;94972.91;;;35.91;23.33
61292;BME280;47165;42.664;23.368;2022-07-01T11:35:05;94967.72;;;36.06;24.13
61292;BME280;47165;42.664;23.368;2022-07-01T11:37:50;94974.66;;;36.31;26.48
61292;BME280;47165;42.664;23.368;2022-07-01T11:40:34;94970.25;;;36.63;26.92
61292;BME280;47165;42.664;23.368;2022-07-01T11:42:59;94965.94;;;36.68;25.67
61292;BME280;47165;42.664;23.368;2022-07-01T11:45:26;94960.78;;;36.49;21.50
61292;BME280;47165;42.664;23.368;2022-07-01T11:47:52;94961.25;;;36.46;24.29
61292;BME280;47165;42.664;23.368;2022-07-01T11:50:19;94955.97;;;36.56;23.83
61292;BME280;47165;42.664;23.368;2022-07-01T11:52:45;94952.75;;;36.59;23.50
61292;BME280;47165;42.664;23.368;2022-07-01T11:55:11;94951.59;;;36.55;22.01
61292;BME280;47165;42.664;23.368;2022-07-01T11:57:36;94954.91;;;36.57;22.08
61292;BME280;47165;42.664;23.368;2022-07-01T12:00:11;94946.72;;;36.74;22.94
61292;BME280;47165;42.664;23.368;2022-07-01T12:02:37;94957.91;;;36.78;22.83
61292;BME280;47165;42.664;23.368;2022-07-01T12:05:03;94941.59;;;36.78;20.71
61292;BME280;47165;42.664;23.368;2022-07-01T12:07:30;94940.69;;;36.94;20.84
61292;BME280;47165;42.664;23.368;2022-07-01T12:09:58;94938.47;;;37.40;23.71
61292;BME280;47165;42.664;23.368;2022-07-01T12:12:23;94933.34;;;37.71;21.85
61292;BME280;47165;42.664;23.368;2022-07-01T12:14:54;94942.78;;;37.91;24.26
61292;BME280;47165;42.664;23.368;2022-07-01T12:17:21;94933.97;;;37.83;22.35
61292;BME280;47165;42.664;23.368;2022-07-01T12:19:48;94923.34;;;37.55;22.10
61292;BME280;47165;42.664;23.368;2022-07-01T12:22:15;94929.63;;;37.55;20.36
61292;BME280;47165;42.664;23.368;2022-07-01T12:24:41;94920.91;;;37.85;19.39
61292;BME280;47165;42.664;23.368;2022-07-01T12:27:08;94917.44;;;37.95;20.23
61292;BME280;47165;42.664;23.368;2022-07-01T12:32:10;94921.94;;;37.20;22.28
61292;BME280;47165;42.664;23.368;2022-07-01T12:34:52;94920.63;;;37.55;20.25
61292;BME280;47165;42.664;23.368;2022-07-01T12:37:35;94917.06;;;38.14;19.71
61292;BME280;47165;42.664;23.368;2022-07-01T12:42:36;94918.94;;;39.19;18.55
61292;BME280;47165;42.664;23.368;2022-07-01T12:45:07;94922.88;;;39.59;21.89
61292;BME280;47165;42.664;23.368;2022-07-01T12:47:37;94920.72;;;40.02;20.17
61292;BME280;47165;42.664;23.368;2022-07-01T12:50:28;94905.94;;;40.03;20.87
61292;BME280;47165;42.664;23.368;2022-07-01T12:55:49;94909.75;;;39.97;21.31
61292;BME280;47165;42.664;23.368;2022-07-01T12:58:20;94916.06;;;39.92;21.59
61292;BME280;47165;42.664;23.368;2022-07-01T13:00:49;94920.69;;;39.66;21.78
61292;BME280;47165;42.664;23.368;2022-07-01T13:03:22;94918.94;;;39.19;22.62
61292;BME280;47165;42.664;23.368;2022-07-01T13:05:48;94918.41;;;39.22;24.74
61292;BME280;47165;42.664;23.368;2022-07-01T13:08:15;94918.22;;;39.49;22.85
61292;BME280;47165;42.664;23.368;2022-07-01T13:10:40;94915.75;;;39.48;23.71
61292;BME280;47165;42.664;23.368;2022-07-01T13:13:06;94906.94;;;39.35;22.75
61292;BME280;47165;42.664;23.368;2022-07-01T13:15:33;94911.88;;;39.33;23.07
61292;BME280;47165;42.664;23.368;2022-07-01T13:17:59;94912.97;;;39.37;23.76
61292;BME280;47165;42.664;23.368;2022-07-01T13:20:25;94914.28;;;39.19;23.10
61292;BME280;47165;42.664;23.368;2022-07-01T13:22:50;94919.22;;;39.17;22.53
61292;BME280;47165;42.664;23.368;2022-07-01T13:25:16;94920.59;;;39.25;23.38
61292;BME280;47165;42.664;23.368;2022-07-01T13:27:42;94909.94;;;39.23;21.83
61292;BME280;47165;42.664;23.368;2022-07-01T13:30:09;94911.53;;;39.04;21.61
61292;BME280;47165;42.664;23.368;2022-07-01T13:32:35;94913.97;;;39.00;23.26
61292;BME280;47165;42.664;23.368;2022-07-01T13:35:01;94896.53;;;39.01;22.78
61292;BME280;47165;42.664;23.368;2022-07-01T13:37:28;94902.00;;;39.12;24.37
61292;BME280;47165;42.664;23.368;2022-07-01T13:39:54;94906.38;;;39.08;22.11
61292;BME280;47165;42.664;23.368;2022-07-01T13:42:20;94915.91;;;39.00;22.39
61292;BME280;47165;42.664;23.368;2022-07-01T13:44:45;94913.66;;;38.92;21.78
61292;BME280;47165;42.664;23.368;2022-07-01T13:47:11;94910.38;;;38.95;21.94
61292;BME280;47165;42.664;23.368;2022-07-01T13:49:40;94899.75;;;38.93;24.23
61292;BME280;47165;42.664;23.368;2022-07-01T13:52:08;94912.91;;;39.01;23.00
61292;BME280;47165;42.664;23.368;2022-07-01T13:54:33;94911.53;;;39.04;24.15